createdAt,value
2022-10-30T00:01:43.739Z,101735.66
2022-10-30T00:04:13.600Z,101734.93
2022-10-30T00:06:43.038Z,101734.13
2022-10-30T00:09:12.907Z,101734.13
2022-10-30T00:11:43.361Z,101737.56
2022-10-30T00:14:13.837Z,101730.61
2022-10-30T00:16:43.633Z,101737.38
2022-10-30T00:19:13.336Z,101730.83
2022-10-30T00:21:43.069Z,101733.41
2022-10-30T00:24:12.806Z,101727.47
2022-10-30T00:26:42.540Z,101729.66
2022-10-30T00:29:12.270Z,101733.59
2022-10-30T00:31:42.582Z,101736.77
2022-10-30T00:34:12.302Z,101731.41
2022-10-30T00:36:42.132Z,101726.67
2022-10-30T00:39:11.947Z,101736.00
2022-10-30T00:41:41.920Z,101731.42
2022-10-30T00:44:33.714Z,101730.19
2022-10-30T00:47:06.318Z,101732.27
2022-10-30T00:49:39.100Z,101734.63
2022-10-30T00:52:11.944Z,101732.80
2022-10-30T00:54:42.393Z,101725.75
2022-10-30T00:57:12.196Z,101725.41
2022-10-30T00:59:42.394Z,101723.53
2022-10-30T01:02:12.805Z,101718.19
2022-10-30T01:04:44.403Z,101723.04
2022-10-30T01:07:17.779Z,101723.02
2022-10-30T01:09:48.544Z,101725.75
2022-10-30T01:12:18.056Z,101726.66
2022-10-30T01:14:50.902Z,101726.71
2022-10-30T01:17:30.666Z,101725.56
2022-10-30T01:20:18.390Z,101729.27
2022-10-30T01:23:00.396Z,101729.92
2022-10-30T01:25:58.729Z,101725.22
2022-10-30T01:28:49.223Z,101726.62
2022-10-30T01:31:38.076Z,101735.59
2022-10-30T01:34:27.982Z,101730.94
2022-10-30T01:37:06.602Z,101739.00
2022-10-30T01:39:40.145Z,101739.48
2022-10-30T01:42:13.776Z,101738.48
2022-10-30T01:44:43.602Z,101739.45
2022-10-30T01:47:18.082Z,101738.33
2022-10-30T01:50:08.695Z,101735.57
2022-10-30T01:52:50.109Z,101743.01
2022-10-30T01:55:28.845Z,101743.10
2022-10-30T01:58:20.837Z,101735.05
2022-10-30T02:00:55.415Z,101736.78
2022-10-30T02:03:26.537Z,101733.30
2022-10-30T02:05:56.506Z,101737.13
2022-10-30T02:08:26.472Z,101740.95
2022-10-30T02:10:57.701Z,101736.96
2022-10-30T02:13:39.122Z,101730.72
2022-10-30T02:16:11.710Z,101732.25
2022-10-30T02:18:41.649Z,101731.41
2022-10-30T02:21:11.464Z,101734.74
2022-10-30T02:23:41.392Z,101735.69
2022-10-30T02:26:11.511Z,101738.22
2022-10-30T02:28:41.280Z,101733.37
2022-10-30T02:31:11.017Z,101719.36
2022-10-30T02:33:49.885Z,101719.36
2022-10-30T02:36:19.732Z,101735.16
2022-10-30T02:38:49.537Z,101735.59
2022-10-30T02:41:19.341Z,101730.78
2022-10-30T02:43:49.078Z,101732.09
2022-10-30T02:46:18.824Z,101743.78
2022-10-30T02:48:48.751Z,101743.03
2022-10-30T02:51:18.759Z,101748.22
2022-10-30T02:53:48.573Z,101747.72
2022-10-30T02:56:18.166Z,101755.33
2022-10-30T02:58:48.076Z,101747.08
2022-10-30T03:01:20.380Z,101746.77
2022-10-30T03:03:50.553Z,101754.28
2022-10-30T03:06:20.247Z,101756.59
2022-10-30T03:08:50.062Z,101759.99
2022-10-30T03:11:21.353Z,101753.27
2022-10-30T03:13:51.432Z,101758.95
2022-10-30T03:16:24.903Z,101760.19
2022-10-30T03:18:54.748Z,101757.57
2022-10-30T03:21:26.833Z,101754.30
2022-10-30T03:23:56.847Z,101753.89
2022-10-30T03:26:26.312Z,101763.38
2022-10-30T03:29:08.967Z,101753.36
2022-10-30T03:31:38.695Z,101747.15
2022-10-30T03:34:16.005Z,101752.77
2022-10-30T03:36:45.804Z,101750.33
2022-10-30T03:39:15.818Z,101763.23
2022-10-30T03:41:46.248Z,101767.66
2022-10-30T03:44:15.982Z,101747.17
2022-10-30T03:46:46.099Z,101747.17
2022-10-30T03:49:23.795Z,101748.73
2022-10-30T03:51:53.542Z,101750.31
2022-10-30T03:54:24.158Z,101752.42
2022-10-30T03:56:53.946Z,101748.44
2022-10-30T03:59:24.164Z,101752.88
2022-10-30T04:01:56.249Z,101763.62
2022-10-30T04:04:26.154Z,101763.62
2022-10-30T04:06:55.884Z,101763.23
2022-10-30T04:09:25.692Z,101763.31
2022-10-30T04:11:55.972Z,101760.06
2022-10-30T04:14:25.544Z,101763.23
2022-10-30T04:16:55.057Z,101768.18
2022-10-30T04:19:24.791Z,101777.50
2022-10-30T04:21:55.105Z,101777.50
2022-10-30T04:24:25.205Z,101775.36
2022-10-30T04:26:56.781Z,101777.37
2022-10-30T04:29:26.508Z,101775.48
2022-10-30T04:31:56.311Z,101777.88
2022-10-30T04:34:25.821Z,101776.01
2022-10-30T04:36:55.559Z,101770.07
2022-10-30T04:39:25.577Z,101774.50
2022-10-30T04:41:57.009Z,101762.42
2022-10-30T04:44:28.515Z,101754.62
2022-10-30T04:46:58.549Z,101758.05
2022-10-30T04:49:28.572Z,101756.94
2022-10-30T04:51:58.315Z,101756.73
2022-10-30T04:54:28.620Z,101754.91
2022-10-30T04:56:58.417Z,101758.30
2022-10-30T04:59:28.226Z,101750.30
2022-10-30T05:01:58.090Z,101750.30
2022-10-30T05:04:28.864Z,101751.28
2022-10-30T05:06:58.683Z,101745.27
2022-10-30T05:09:28.159Z,101750.11
2022-10-30T05:11:59.165Z,101742.61
2022-10-30T05:14:32.543Z,101736.27
2022-10-30T05:17:02.700Z,101734.27
2022-10-30T05:19:32.474Z,101737.43
2022-10-30T05:22:02.242Z,101731.54
2022-10-30T05:24:32.056Z,101729.84
2022-10-30T05:27:01.797Z,101738.41
2022-10-30T05:29:31.820Z,101745.77
2022-10-30T05:32:01.674Z,101749.87
2022-10-30T05:34:42.137Z,101743.44
2022-10-30T05:37:11.939Z,101748.19
2022-10-30T05:39:42.955Z,101742.19
2022-10-30T05:42:14.422Z,101742.19
2022-10-30T05:45:00.316Z,101746.83
2022-10-30T05:47:18.552Z,101751.25
2022-10-30T05:49:50.008Z,101748.75
2022-10-30T05:52:21.233Z,101753.80
2022-10-30T05:54:52.045Z,101761.83
2022-10-30T05:57:34.497Z,101762.85
2022-10-30T06:00:07.093Z,101757.31
2022-10-30T06:02:38.622Z,101766.78
2022-10-30T06:05:08.513Z,101757.89
2022-10-30T06:07:38.528Z,101755.30
2022-10-30T06:10:11.091Z,101763.03
2022-10-30T06:12:42.559Z,101765.84
2022-10-30T06:15:23.539Z,101739.36
2022-10-30T06:17:53.589Z,101739.36
2022-10-30T06:20:27.361Z,101758.18
2022-10-30T06:23:15.216Z,101764.58
2022-10-30T06:25:49.971Z,101761.08
2022-10-30T06:28:27.512Z,101757.02
2022-10-30T06:30:57.717Z,101764.36
2022-10-30T06:33:27.525Z,101759.02
2022-10-30T06:35:57.530Z,101759.86
2022-10-30T06:38:27.319Z,101763.23
2022-10-30T06:40:58.034Z,101767.25
2022-10-30T06:43:29.715Z,101761.59
2022-10-30T06:46:01.250Z,101757.25
2022-10-30T06:48:32.821Z,101750.38
2022-10-30T06:51:04.411Z,101745.70
2022-10-30T06:53:35.926Z,101747.84
2022-10-30T06:56:21.488Z,101749.25
2022-10-30T06:58:56.117Z,101747.66
2022-10-30T07:01:39.079Z,101736.87
2022-10-30T07:04:22.365Z,101746.72
2022-10-30T07:06:52.171Z,101749.25
2022-10-30T07:09:23.596Z,101747.84
2022-10-30T07:11:56.709Z,101751.22
2022-10-30T07:14:26.502Z,101754.73
2022-10-30T07:16:57.972Z,101755.33
2022-10-30T07:19:28.719Z,101749.95
2022-10-30T07:21:59.036Z,101749.42
2022-10-30T07:24:28.868Z,101742.77
2022-10-30T07:27:00.626Z,101742.77
2022-10-30T07:29:38.044Z,101739.26
2022-10-30T07:32:15.224Z,101743.02
2022-10-30T07:34:55.730Z,101744.93
2022-10-30T07:37:43.618Z,101752.66
2022-10-30T07:40:15.195Z,101752.66
2022-10-30T07:42:49.230Z,101753.16
2022-10-30T07:45:36.976Z,101749.79
2022-10-30T07:48:24.050Z,101752.66
2022-10-30T07:50:58.208Z,101747.68
2022-10-30T07:53:28.640Z,101750.53
2022-10-30T07:56:00.111Z,101747.68
2022-10-30T07:58:45.796Z,101748.33
2022-10-30T08:01:17.257Z,101752.11
2022-10-30T08:03:47.640Z,101756.89
2022-10-30T08:06:27.081Z,101753.05
2022-10-30T08:08:56.239Z,101749.77
2022-10-30T08:11:27.999Z,101721.66
2022-10-30T08:13:58.149Z,101736.20
2022-10-30T08:16:27.988Z,101739.16
2022-10-30T08:19:03.108Z,101749.00
2022-10-30T08:21:33.191Z,101754.27
2022-10-30T08:24:06.340Z,101761.72
2022-10-30T08:26:36.925Z,101759.59
2022-10-30T08:29:06.835Z,101755.16
2022-10-30T08:31:36.877Z,101749.41
2022-10-30T08:34:09.904Z,101747.14
2022-10-30T08:36:43.945Z,101740.12
2022-10-30T08:39:12.804Z,101734.03
2022-10-30T08:41:47.212Z,101729.97
2022-10-30T08:44:16.958Z,101726.59
2022-10-30T08:47:04.553Z,101723.31
2022-10-30T08:49:34.362Z,101724.57
2022-10-30T08:52:10.667Z,101727.20
2022-10-30T08:54:42.241Z,101735.16
2022-10-30T08:57:12.074Z,101743.13
2022-10-30T08:59:41.923Z,101749.08
2022-10-30T09:02:13.575Z,101749.78
2022-10-30T09:05:00.832Z,101731.34
2022-10-30T09:07:47.456Z,101731.34
2022-10-30T09:10:24.520Z,101729.53
2022-10-30T09:13:02.349Z,101729.09
2022-10-30T09:15:32.454Z,101734.61
2022-10-30T09:18:04.308Z,101730.00
2022-10-30T09:20:34.151Z,101732.98
2022-10-30T09:23:04.452Z,101736.70
2022-10-30T09:25:34.522Z,101735.92
2022-10-30T09:28:08.044Z,101737.96
2022-10-30T09:30:39.503Z,101734.72
2022-10-30T09:33:10.673Z,101723.36
2022-10-30T09:35:44.893Z,101721.77
2022-10-30T09:38:14.644Z,101719.95
2022-10-30T09:41:05.705Z,101718.91
2022-10-30T09:43:56.322Z,101714.40
2022-10-30T09:46:43.958Z,101691.78
2022-10-30T09:49:40.116Z,101691.78
2022-10-30T09:52:36.032Z,101706.92
2022-10-30T09:55:27.966Z,101700.18
2022-10-30T09:58:01.047Z,101700.18
2022-10-30T10:00:42.124Z,101723.16
2022-10-30T10:03:28.483Z,101723.16
2022-10-30T10:06:03.353Z,101721.78
2022-10-30T10:08:46.502Z,101721.78
2022-10-30T10:11:40.088Z,101734.69
2022-10-30T10:14:26.286Z,101748.08
2022-10-30T10:16:58.646Z,101756.28
2022-10-30T10:19:31.231Z,101758.28
2022-10-30T10:22:04.021Z,101757.22
2022-10-30T10:24:39.441Z,101755.98
2022-10-30T10:27:17.877Z,101747.86
2022-10-30T10:30:08.383Z,101741.75
2022-10-30T10:32:52.826Z,101741.75
2022-10-30T10:35:37.447Z,101747.89
2022-10-30T10:38:14.014Z,101742.10
2022-10-30T10:40:46.805Z,101748.77
2022-10-30T10:43:37.308Z,101749.05
2022-10-30T10:46:39.138Z,101743.62
2022-10-30T10:49:26.603Z,101738.36
2022-10-30T10:51:59.397Z,101735.28
2022-10-30T10:54:31.975Z,101733.70
2022-10-30T10:57:03.477Z,101729.00
2022-10-30T10:59:39.077Z,101727.31
2022-10-30T11:02:31.878Z,101729.49
2022-10-30T11:05:07.209Z,101717.41
2022-10-30T11:07:43.038Z,101718.27
2022-10-30T11:10:16.105Z,101711.92
2022-10-30T11:12:45.923Z,101718.30
2022-10-30T11:15:24.464Z,101723.71
2022-10-30T11:18:08.688Z,101715.80
2022-10-30T11:20:47.263Z,101718.00
2022-10-30T11:23:41.103Z,101711.95
2022-10-30T11:26:23.730Z,101709.17
2022-10-30T11:29:15.968Z,101712.91
2022-10-30T11:31:47.180Z,101714.38
2022-10-30T11:34:22.759Z,101702.66
2022-10-30T11:36:54.293Z,101695.77
2022-10-30T11:39:32.642Z,101697.11
2022-10-30T11:42:07.810Z,101694.73
2022-10-30T11:44:43.418Z,101687.92
2022-10-30T11:47:15.632Z,101679.36
2022-10-30T11:49:51.401Z,101681.19
2022-10-30T11:52:23.534Z,101680.34
2022-10-30T11:54:59.325Z,101682.23
2022-10-30T11:57:40.577Z,101677.23
2022-10-30T12:00:28.862Z,101678.20
2022-10-30T12:03:06.219Z,101678.55
2022-10-30T12:05:45.095Z,101676.99
2022-10-30T12:08:22.736Z,101674.03
2022-10-30T12:10:58.310Z,101673.20
2022-10-30T12:13:29.928Z,101676.86
2022-10-30T12:16:17.391Z,101678.77
2022-10-30T12:18:58.897Z,101680.00
2022-10-30T12:21:31.264Z,101676.34
2022-10-30T12:24:05.400Z,101682.22
2022-10-30T12:26:37.002Z,101684.69
2022-10-30T12:29:12.516Z,101660.24
2022-10-30T12:31:48.181Z,101660.24
2022-10-30T12:34:48.262Z,101671.44
2022-10-30T12:37:23.620Z,101663.98
2022-10-30T12:40:14.715Z,101667.09
2022-10-30T12:42:59.426Z,101664.42
2022-10-30T12:45:44.364Z,101653.78
2022-10-30T12:48:26.393Z,101656.48
2022-10-30T12:51:26.082Z,101650.23
2022-10-30T12:54:07.650Z,101646.31
2022-10-30T12:56:42.681Z,101651.34
2022-10-30T12:59:33.381Z,101648.19
2022-10-30T13:02:25.568Z,101648.61
2022-10-30T13:04:58.378Z,101647.72
2022-10-30T13:07:39.719Z,101648.28
2022-10-30T13:10:19.445Z,101652.52
2022-10-30T13:12:54.126Z,101642.78
2022-10-30T13:15:26.951Z,101641.28
2022-10-30T13:18:02.646Z,101645.69
2022-10-30T13:20:32.617Z,101642.39
2022-10-30T13:23:05.716Z,101639.66
2022-10-30T13:25:56.628Z,101635.56
2022-10-30T13:28:46.821Z,101637.84
2022-10-30T13:31:39.085Z,101631.09
2022-10-30T13:34:31.764Z,101627.08
2022-10-30T13:37:10.110Z,101611.78
2022-10-30T13:39:48.835Z,101611.78
2022-10-30T13:42:41.724Z,101624.44
2022-10-30T13:45:28.993Z,101620.99
2022-10-30T13:48:19.170Z,101597.12
2022-10-30T13:50:52.295Z,101597.12
2022-10-30T13:53:24.882Z,101623.66
2022-10-30T13:56:00.175Z,101619.67
2022-10-30T14:01:29.954Z,101627.17
2022-10-30T14:04:17.516Z,101627.22
2022-10-30T14:06:53.134Z,101626.77
2022-10-30T14:10:02.413Z,101624.71
2022-10-30T14:12:59.667Z,101628.12
2022-10-30T14:15:32.590Z,101628.12
2022-10-30T14:18:17.496Z,101631.66
2022-10-30T14:20:52.232Z,101641.33
2022-10-30T14:23:24.965Z,101645.11
2022-10-30T14:26:09.354Z,101640.33
2022-10-30T14:28:46.555Z,101645.73
2022-10-30T14:31:36.798Z,101639.16
2022-10-30T14:34:11.031Z,101635.53
2022-10-30T14:36:46.265Z,101640.52
2022-10-30T14:39:19.085Z,101640.70
2022-10-30T14:42:00.797Z,101643.47
2022-10-30T14:44:54.544Z,101653.17
2022-10-30T14:47:51.438Z,101651.71
2022-10-30T14:50:41.988Z,101654.45
2022-10-30T14:53:31.059Z,101655.64
2022-10-30T14:56:12.838Z,101636.35
2022-10-30T14:58:42.918Z,101636.35
2022-10-30T15:01:27.597Z,101656.52
2022-10-30T15:04:21.437Z,101652.11
2022-10-30T15:06:53.971Z,101660.19
2022-10-30T15:09:50.409Z,101644.17
2022-10-30T15:12:40.819Z,101638.75
2022-10-30T15:15:16.913Z,101635.22
2022-10-30T15:17:52.306Z,101633.00
2022-10-30T15:20:27.012Z,101647.44
2022-10-30T15:23:08.316Z,101644.23
2022-10-30T15:25:41.104Z,101648.11
2022-10-30T15:28:15.139Z,101650.33
2022-10-30T15:31:02.469Z,101659.22
2022-10-30T15:33:34.889Z,101661.65
2022-10-30T15:36:07.232Z,101661.05
2022-10-30T15:38:37.347Z,101672.09
2022-10-30T15:41:08.230Z,101672.87
2022-10-30T15:43:40.884Z,101689.52
2022-10-30T15:46:14.974Z,101690.42
2022-10-30T15:48:47.598Z,101693.88
2022-10-30T15:51:19.966Z,101700.12
2022-10-30T15:53:55.487Z,101709.59
2022-10-30T15:57:17.877Z,101714.16
2022-10-30T15:59:22.099Z,101722.59
2022-10-30T16:01:54.621Z,101727.30
2022-10-30T16:04:26.594Z,101726.77
2022-10-30T16:06:58.458Z,101736.61
2022-10-30T16:09:29.546Z,101741.05
2022-10-30T16:12:01.292Z,101746.55
2022-10-30T16:14:34.313Z,101755.13
2022-10-30T16:17:04.414Z,101758.35
2022-10-30T16:19:37.545Z,101759.44
2022-10-30T16:22:08.965Z,101763.97
2022-10-30T16:24:40.624Z,101762.34
2022-10-30T16:27:21.412Z,101773.07
2022-10-30T16:29:54.767Z,101761.70
2022-10-30T16:32:27.622Z,101761.70
2022-10-30T16:34:59.941Z,101782.53
2022-10-30T16:37:38.474Z,101786.91
2022-10-30T16:40:16.917Z,101795.19
2022-10-30T16:42:59.095Z,101801.21
2022-10-30T16:45:37.752Z,101810.30
2022-10-30T16:48:11.777Z,101802.97
2022-10-30T16:50:41.970Z,101811.88
2022-10-30T16:53:26.266Z,101807.27
2022-10-30T16:55:58.583Z,101807.66
2022-10-30T16:58:31.270Z,101813.64
2022-10-30T17:01:08.218Z,101817.39
2022-10-30T17:03:41.546Z,101820.16
2022-10-30T17:06:29.509Z,101820.16
2022-10-30T17:09:00.796Z,101825.23
2022-10-30T17:11:40.835Z,101831.30
2022-10-30T17:14:21.401Z,101831.86
2022-10-30T17:16:56.705Z,101833.92
2022-10-30T17:19:35.005Z,101832.67
2022-10-30T17:22:07.212Z,101830.77
2022-10-30T17:24:39.370Z,101833.06
2022-10-30T17:27:12.128Z,101832.36
2022-10-30T17:29:45.302Z,101834.28
2022-10-30T17:32:20.726Z,101835.36
2022-10-30T17:35:05.505Z,101837.20
2022-10-30T17:37:35.114Z,101847.48
2022-10-30T17:40:04.950Z,101853.32
2022-10-30T17:42:35.080Z,101843.64
2022-10-30T17:45:07.063Z,101825.94
2022-10-30T17:47:37.889Z,101833.08
2022-10-30T17:50:10.251Z,101843.97
2022-10-30T17:52:40.052Z,101844.35
2022-10-30T17:55:21.595Z,101836.02
2022-10-30T17:57:51.396Z,101832.55
2022-10-30T18:00:20.996Z,101842.80
2022-10-30T18:02:50.795Z,101855.66
2022-10-30T18:05:23.417Z,101855.66
2022-10-30T18:07:53.153Z,101884.36
2022-10-30T18:10:22.989Z,101876.67
2022-10-30T18:12:53.014Z,101876.67
2022-10-30T18:15:25.811Z,101899.30
2022-10-30T18:17:55.715Z,101915.16
2022-10-30T18:20:26.149Z,101908.25
2022-10-30T18:22:56.281Z,101903.34
2022-10-30T18:25:29.190Z,101901.97
2022-10-30T18:27:59.008Z,101912.94
2022-10-30T18:30:29.401Z,101914.38
2022-10-30T18:32:59.610Z,101913.64
2022-10-30T18:35:37.898Z,101921.73
2022-10-30T18:38:08.420Z,101924.87
2022-10-30T18:40:38.191Z,101929.44
2022-10-30T18:43:11.347Z,101937.64
2022-10-30T18:45:43.733Z,101941.82
2022-10-30T18:48:14.077Z,101947.14
2022-10-30T18:50:44.622Z,101953.22
2022-10-30T18:53:19.090Z,101950.84
2022-10-30T18:55:49.716Z,101946.93
2022-10-30T18:58:19.506Z,101934.78
2022-10-30T19:01:11.196Z,101944.84
2022-10-30T19:03:20.847Z,101953.11
2022-10-30T19:05:51.635Z,101948.44
2022-10-30T19:08:21.341Z,101950.52
2022-10-30T19:13:23.316Z,101941.66
2022-10-30T19:16:00.319Z,101945.92
2022-10-30T19:18:30.667Z,101946.92
2022-10-30T19:21:05.847Z,101951.64
2022-10-30T19:23:31.890Z,101952.86
2022-10-30T19:26:01.724Z,101951.83
2022-10-30T19:28:32.607Z,101961.52
2022-10-30T19:31:02.627Z,101958.53
2022-10-30T19:33:32.660Z,101955.92
2022-10-30T19:36:07.596Z,101954.12
2022-10-30T19:38:37.339Z,101958.76
2022-10-30T19:41:08.767Z,101953.73
2022-10-30T19:43:38.535Z,101950.39
2022-10-30T19:46:09.649Z,101957.95
2022-10-30T19:51:11.744Z,101976.30
2022-10-30T19:53:42.084Z,101973.48
2022-10-30T19:56:15.682Z,101979.09
2022-10-30T19:58:45.725Z,101986.34
2022-10-30T20:01:16.330Z,101983.89
2022-10-30T20:03:46.298Z,101977.70
2022-10-30T20:06:16.574Z,101991.41
2022-10-30T20:08:46.301Z,102000.30
2022-10-30T20:11:16.141Z,102002.36
2022-10-30T20:13:48.105Z,102012.41
2022-10-30T20:16:17.459Z,102016.95
2022-10-30T20:18:47.516Z,102014.61
2022-10-30T20:21:17.552Z,102015.92
2022-10-30T20:23:47.408Z,102019.15
2022-10-30T20:26:30.391Z,102018.73
2022-10-30T20:29:03.382Z,102017.91
2022-10-30T20:31:33.135Z,102021.36
2022-10-30T20:34:03.410Z,102009.63
2022-10-30T20:36:33.163Z,102006.20
2022-10-30T20:39:03.097Z,102009.70
2022-10-30T20:41:33.577Z,102011.66
2022-10-30T20:44:03.144Z,101995.97
2022-10-30T20:46:33.018Z,102007.05
2022-10-30T20:49:16.829Z,102027.11
2022-10-30T20:51:34.541Z,102037.17
2022-10-30T20:54:04.351Z,102033.92
2022-10-30T20:56:34.222Z,102027.88
2022-10-30T20:59:03.980Z,102037.50
2022-10-30T21:01:33.867Z,102033.50
2022-10-30T21:04:03.815Z,102028.59
2022-10-30T21:06:33.649Z,102034.33
2022-10-30T21:09:03.390Z,102044.52
2022-10-30T21:11:33.139Z,102045.16
2022-10-30T21:14:02.888Z,102046.04
2022-10-30T21:16:32.343Z,102047.08
2022-10-30T21:19:02.105Z,102047.72
2022-10-30T21:21:31.854Z,102046.47
2022-10-30T21:24:01.595Z,102054.80
2022-10-30T21:26:31.380Z,102061.38
2022-10-30T21:29:01.393Z,102069.86
2022-10-30T21:31:31.164Z,102069.86
2022-10-30T21:34:03.364Z,102065.81
2022-10-30T21:36:33.407Z,102061.19
2022-10-30T21:39:03.137Z,102064.03
2022-10-30T21:41:33.041Z,102059.80
2022-10-30T21:44:03.071Z,102071.22
2022-10-30T21:46:33.071Z,102071.22
2022-10-30T21:49:07.578Z,102053.98
2022-10-30T21:51:37.283Z,102077.70
2022-10-30T21:54:07.448Z,102060.12
2022-10-30T21:56:37.525Z,102060.12
2022-10-30T21:59:07.426Z,102073.56
2022-10-30T22:01:38.741Z,102073.56
2022-10-30T22:04:11.242Z,102052.50
2022-10-30T22:06:43.708Z,102052.50
2022-10-30T22:09:16.124Z,102073.78
2022-10-30T22:11:46.233Z,102073.78
2022-10-30T22:14:17.099Z,102076.84
2022-10-30T22:16:46.902Z,102080.97
2022-10-30T22:19:16.704Z,102079.81
2022-10-30T22:21:46.537Z,102081.66
2022-10-30T22:24:17.241Z,102077.22
2022-10-30T22:26:48.004Z,102077.22
2022-10-30T22:29:18.042Z,102084.31
2022-10-30T22:31:47.933Z,102088.89
2022-10-30T22:34:17.421Z,102092.14
2022-10-30T22:36:47.152Z,102087.49
2022-10-30T22:39:17.256Z,102100.45
2022-10-30T22:41:47.140Z,102101.45
2022-10-30T22:44:18.780Z,102101.45
2022-10-30T22:46:48.812Z,102111.81
2022-10-30T22:49:18.558Z,102106.84
2022-10-30T22:51:48.576Z,102116.31
2022-10-30T22:54:18.612Z,102106.16
2022-10-30T22:56:48.640Z,102106.16
2022-10-30T22:59:18.661Z,102108.77
2022-10-30T23:01:48.548Z,102108.77
2022-10-30T23:04:18.306Z,102100.80
2022-10-30T23:06:48.403Z,102100.31
2022-10-30T23:09:22.066Z,102106.29
2022-10-30T23:11:51.921Z,102104.23
2022-10-30T23:14:21.370Z,102115.71
2022-10-30T23:16:50.847Z,102109.30
2022-10-30T23:19:20.581Z,102115.72
2022-10-30T23:21:50.621Z,102114.91
2022-10-30T23:24:20.254Z,102119.24
2022-10-30T23:26:50.072Z,102113.54
2022-10-30T23:29:20.883Z,102116.77
2022-10-30T23:31:50.914Z,102117.19
2022-10-30T23:34:20.679Z,102118.20
2022-10-30T23:36:50.403Z,102120.22
2022-10-30T23:39:20.169Z,102116.77
2022-10-30T23:41:49.969Z,102114.19
2022-10-30T23:44:19.489Z,102111.56
2022-10-30T23:46:49.288Z,102121.27
2022-10-30T23:49:19.051Z,102119.90
2022-10-30T23:51:48.843Z,102125.08
2022-10-30T23:54:18.576Z,102122.17
2022-10-30T23:56:48.515Z,102122.17
2022-10-30T23:59:18.280Z,102124.02
